sensor_id;sensor_type;location;lat;lon;timestamp;P1;durP1;ratioP1;P2;durP2;ratioP2
11016;SDS011;54687;50.800;6.772;2023-07-22T00:00:17;8.05;;;7.25;;
11016;SDS011;54687;50.800;6.772;2023-07-22T00:02:44;9.98;;;8.77;;
11016;SDS011;54687;50.800;6.772;2023-07-22T00:05:10;8.77;;;7.97;;
11016;SDS011;54687;50.800;6.772;2023-07-22T00:07:37;8.20;;;7.45;;
11016;SDS011;54687;50.800;6.772;2023-07-22T00:10:05;9.13;;;8.32;;
11016;SDS011;54687;50.800;6.772;2023-07-22T00:12:34;8.98;;;8.18;;
11016;SDS011;54687;50.800;6.772;2023-07-22T00:15:02;8.57;;;7.78;;
11016;SDS011;54687;50.800;6.772;2023-07-22T00:17:34;8.27;;;7.57;;
11016;SDS011;54687;50.800;6.772;2023-07-22T00:20:03;8.63;;;7.93;;
11016;SDS011;54687;50.800;6.772;2023-07-22T00:22:33;9.07;;;8.18;;
11016;SDS011;54687;50.800;6.772;2023-07-22T00:25:03;8.85;;;8.05;;
11016;SDS011;54687;50.800;6.772;2023-07-22T00:27:33;8.43;;;7.72;;
11016;SDS011;54687;50.800;6.772;2023-07-22T00:30:04;8.32;;;7.53;;
11016;SDS011;54687;50.800;6.772;2023-07-22T00:32:32;8.77;;;7.88;;
11016;SDS011;54687;50.800;6.772;2023-07-22T00:35:02;8.07;;;7.38;;
11016;SDS011;54687;50.800;6.772;2023-07-22T00:37:30;8.68;;;7.90;;
11016;SDS011;54687;50.800;6.772;2023-07-22T00:39:57;8.52;;;7.82;;
11016;SDS011;54687;50.800;6.772;2023-07-22T00:42:24;9.48;;;7.93;;
11016;SDS011;54687;50.800;6.772;2023-07-22T00:44:51;8.60;;;7.72;;
11016;SDS011;54687;50.800;6.772;2023-07-22T00:47:19;8.70;;;7.85;;
11016;SDS011;54687;50.800;6.772;2023-07-22T00:49:47;8.65;;;7.88;;
11016;SDS011;54687;50.800;6.772;2023-07-22T00:52:15;8.10;;;7.38;;
11016;SDS011;54687;50.800;6.772;2023-07-22T00:54:42;8.70;;;7.90;;
11016;SDS011;54687;50.800;6.772;2023-07-22T00:57:09;8.82;;;7.93;;
11016;SDS011;54687;50.800;6.772;2023-07-22T00:59:37;8.85;;;7.80;;
11016;SDS011;54687;50.800;6.772;2023-07-22T01:02:05;11.07;;;7.55;;
11016;SDS011;54687;50.800;6.772;2023-07-22T01:04:34;8.32;;;7.53;;
11016;SDS011;54687;50.800;6.772;2023-07-22T01:07:00;8.82;;;8.02;;
11016;SDS011;54687;50.800;6.772;2023-07-22T01:09:33;8.27;;;7.57;;
11016;SDS011;54687;50.800;6.772;2023-07-22T01:12:01;11.35;;;7.30;;
11016;SDS011;54687;50.800;6.772;2023-07-22T01:14:28;8.15;;;7.35;;
11016;SDS011;54687;50.800;6.772;2023-07-22T01:16:55;8.50;;;7.70;;
11016;SDS011;54687;50.800;6.772;2023-07-22T01:19:22;8.60;;;7.80;;
11016;SDS011;54687;50.800;6.772;2023-07-22T01:21:50;7.80;;;7.10;;
11016;SDS011;54687;50.800;6.772;2023-07-22T01:24:20;8.13;;;7.28;;
11016;SDS011;54687;50.800;6.772;2023-07-22T01:26:48;7.57;;;6.90;;
11016;SDS011;54687;50.800;6.772;2023-07-22T01:29:15;7.65;;;6.95;;
11016;SDS011;54687;50.800;6.772;2023-07-22T01:31:41;8.07;;;7.38;;
11016;SDS011;54687;50.800;6.772;2023-07-22T01:34:10;8.80;;;8.02;;
11016;SDS011;54687;50.800;6.772;2023-07-22T01:36:37;7.97;;;7.28;;
11016;SDS011;54687;50.800;6.772;2023-07-22T01:39:04;8.10;;;7.30;;
11016;SDS011;54687;50.800;6.772;2023-07-22T01:41:33;8.65;;;7.75;;
11016;SDS011;54687;50.800;6.772;2023-07-22T01:44:00;7.90;;;7.13;;
11016;SDS011;54687;50.800;6.772;2023-07-22T01:46:27;7.93;;;7.22;;
11016;SDS011;54687;50.800;6.772;2023-07-22T01:48:54;7.75;;;6.97;;
11016;SDS011;54687;50.800;6.772;2023-07-22T01:51:21;7.43;;;6.75;;
11016;SDS011;54687;50.800;6.772;2023-07-22T01:53:49;7.47;;;6.70;;
11016;SDS011;54687;50.800;6.772;2023-07-22T01:56:16;9.38;;;7.25;;
11016;SDS011;54687;50.800;6.772;2023-07-22T01:58:47;8.45;;;7.65;;
11016;SDS011;54687;50.800;6.772;2023-07-22T02:01:14;8.57;;;7.32;;
11016;SDS011;54687;50.800;6.772;2023-07-22T02:03:41;8.00;;;7.30;;
11016;SDS011;54687;50.800;6.772;2023-07-22T02:06:07;8.05;;;7.38;;
11016;SDS011;54687;50.800;6.772;2023-07-22T02:08:35;8.00;;;7.20;;
11016;SDS011;54687;50.800;6.772;2023-07-22T02:11:02;8.43;;;7.22;;
11016;SDS011;54687;50.800;6.772;2023-07-22T02:13:29;7.28;;;6.57;;
11016;SDS011;54687;50.800;6.772;2023-07-22T02:15:58;7.47;;;6.88;;
11016;SDS011;54687;50.800;6.772;2023-07-22T02:18:25;7.18;;;6.63;;
11016;SDS011;54687;50.800;6.772;2023-07-22T02:20:52;8.90;;;7.97;;
11016;SDS011;54687;50.800;6.772;2023-07-22T02:23:19;8.55;;;7.60;;
11016;SDS011;54687;50.800;6.772;2023-07-22T02:25:48;7.40;;;6.78;;
11016;SDS011;54687;50.800;6.772;2023-07-22T02:28:15;7.63;;;6.93;;
11016;SDS011;54687;50.800;6.772;2023-07-22T02:30:46;7.60;;;6.95;;
11016;SDS011;54687;50.800;6.772;2023-07-22T02:33:14;9.00;;;8.20;;
11016;SDS011;54687;50.800;6.772;2023-07-22T02:35:41;8.75;;;8.05;;
11016;SDS011;54687;50.800;6.772;2023-07-22T02:38:08;8.43;;;7.72;;
11016;SDS011;54687;50.800;6.772;2023-07-22T02:40:35;8.88;;;7.63;;
11016;SDS011;54687;50.800;6.772;2023-07-22T02:43:02;8.55;;;7.03;;
11016;SDS011;54687;50.800;6.772;2023-07-22T02:45:30;8.05;;;7.45;;
11016;SDS011;54687;50.800;6.772;2023-07-22T02:47:56;7.82;;;7.13;;
11016;SDS011;54687;50.800;6.772;2023-07-22T02:50:25;7.80;;;6.95;;
11016;SDS011;54687;50.800;6.772;2023-07-22T02:52:51;8.38;;;7.65;;
11016;SDS011;54687;50.800;6.772;2023-07-22T02:55:18;7.40;;;6.80;;
11016;SDS011;54687;50.800;6.772;2023-07-22T02:57:46;7.82;;;6.95;;
11016;SDS011;54687;50.800;6.772;2023-07-22T03:00:14;9.88;;;7.43;;
11016;SDS011;54687;50.800;6.772;2023-07-22T03:02:48;7.60;;;6.90;;
11016;SDS011;54687;50.800;6.772;2023-07-22T03:05:16;7.85;;;7.15;;
11016;SDS011;54687;50.800;6.772;2023-07-22T03:07:44;8.35;;;7.55;;
11016;SDS011;54687;50.800;6.772;2023-07-22T03:10:10;7.22;;;6.57;;
11016;SDS011;54687;50.800;6.772;2023-07-22T03:12:37;7.80;;;7.10;;
11016;SDS011;54687;50.800;6.772;2023-07-22T03:15:04;7.82;;;7.22;;
11016;SDS011;54687;50.800;6.772;2023-07-22T03:17:33;7.55;;;6.95;;
11016;SDS011;54687;50.800;6.772;2023-07-22T03:20:00;8.00;;;7.15;;
11016;SDS011;54687;50.800;6.772;2023-07-22T03:22:27;8.02;;;7.30;;
11016;SDS011;54687;50.800;6.772;2023-07-22T03:24:55;7.28;;;6.63;;
11016;SDS011;54687;50.800;6.772;2023-07-22T03:27:21;9.00;;;7.80;;
11016;SDS011;54687;50.800;6.772;2023-07-22T03:29:48;8.27;;;7.45;;
11016;SDS011;54687;50.800;6.772;2023-07-22T03:32:14;7.75;;;7.05;;
11016;SDS011;54687;50.800;6.772;2023-07-22T03:34:41;8.52;;;7.03;;
11016;SDS011;54687;50.800;6.772;2023-07-22T03:37:07;9.35;;;7.03;;
11016;SDS011;54687;50.800;6.772;2023-07-22T03:39:34;7.95;;;7.25;;
11016;SDS011;54687;50.800;6.772;2023-07-22T03:42:02;7.35;;;6.75;;
11016;SDS011;54687;50.800;6.772;2023-07-22T03:44:30;7.70;;;7.00;;
11016;SDS011;54687;50.800;6.772;2023-07-22T03:46:56;8.00;;;7.30;;
11016;SDS011;54687;50.800;6.772;2023-07-22T03:49:23;7.80;;;7.10;;
11016;SDS011;54687;50.800;6.772;2023-07-22T03:51:50;8.15;;;7.43;;
11016;SDS011;54687;50.800;6.772;2023-07-22T03:54:17;8.40;;;7.60;;
11016;SDS011;54687;50.800;6.772;2023-07-22T03:56:43;7.93;;;7.22;;
11016;SDS011;54687;50.800;6.772;2023-07-22T03:59:11;8.13;;;7.35;;
11016;SDS011;54687;50.800;6.772;2023-07-22T04:01:38;8.00;;;7.30;;
11016;SDS011;54687;50.800;6.772;2023-07-22T04:04:04;8.55;;;7.65;;
11016;SDS011;54687;50.800;6.772;2023-07-22T04:06:31;8.80;;;7.90;;
11016;SDS011;54687;50.800;6.772;2023-07-22T04:08:57;9.00;;;8.10;;
11016;SDS011;54687;50.800;6.772;2023-07-22T04:11:25;8.60;;;7.80;;
11016;SDS011;54687;50.800;6.772;2023-07-22T04:13:52;8.20;;;7.45;;
11016;SDS011;54687;50.800;6.772;2023-07-22T04:16:20;8.93;;;8.00;;
11016;SDS011;54687;50.800;6.772;2023-07-22T04:18:46;7.85;;;7.15;;
11016;SDS011;54687;50.800;6.772;2023-07-22T04:21:13;8.10;;;6.95;;
11016;SDS011;54687;50.800;6.772;2023-07-22T04:23:39;8.70;;;7.80;;
11016;SDS011;54687;50.800;6.772;2023-07-22T04:26:06;8.52;;;7.82;;
11016;SDS011;54687;50.800;6.772;2023-07-22T04:28:33;7.38;;;6.63;;
11016;SDS011;54687;50.800;6.772;2023-07-22T04:31:00;7.68;;;6.97;;
11016;SDS011;54687;50.800;6.772;2023-07-22T04:33:28;7.38;;;6.55;;
11016;SDS011;54687;50.800;6.772;2023-07-22T04:35:55;7.38;;;6.70;;
11016;SDS011;54687;50.800;6.772;2023-07-22T04:38:24;7.40;;;6.70;;
11016;SDS011;54687;50.800;6.772;2023-07-22T04:40:51;8.75;;;7.32;;
11016;SDS011;54687;50.800;6.772;2023-07-22T04:43:17;7.85;;;7.03;;
11016;SDS011;54687;50.800;6.772;2023-07-22T04:45:44;7.47;;;6.80;;
11016;SDS011;54687;50.800;6.772;2023-07-22T04:48:14;7.97;;;7.18;;
11016;SDS011;54687;50.800;6.772;2023-07-22T04:50:42;8.32;;;7.53;;
11016;SDS011;54687;50.800;6.772;2023-07-22T04:53:10;7.72;;;7.03;;
11016;SDS011;54687;50.800;6.772;2023-07-22T04:55:38;8.70;;;7.78;;
11016;SDS011;54687;50.800;6.772;2023-07-22T04:58:05;7.43;;;6.78;;
11016;SDS011;54687;50.800;6.772;2023-07-22T05:00:32;7.65;;;6.95;;
11016;SDS011;54687;50.800;6.772;2023-07-22T05:02:58;7.55;;;6.82;;
11016;SDS011;54687;50.800;6.772;2023-07-22T05:05:25;8.52;;;7.72;;
11016;SDS011;54687;50.800;6.772;2023-07-22T05:07:54;8.45;;;7.65;;
11016;SDS011;54687;50.800;6.772;2023-07-22T05:10:20;8.07;;;6.90;;
11016;SDS011;54687;50.800;6.772;2023-07-22T05:12:47;8.50;;;6.90;;
11016;SDS011;54687;50.800;6.772;2023-07-22T05:15:14;8.20;;;7.50;;
11016;SDS011;54687;50.800;6.772;2023-07-22T05:17:41;8.90;;;7.30;;
11016;SDS011;54687;50.800;6.772;2023-07-22T05:20:08;8.15;;;7.45;;
11016;SDS011;54687;50.800;6.772;2023-07-22T05:22:36;8.23;;;7.53;;
11016;SDS011;54687;50.800;6.772;2023-07-22T05:25:05;7.55;;;6.47;;
11016;SDS011;54687;50.800;6.772;2023-07-22T05:27:33;7.68;;;6.97;;
11016;SDS011;54687;50.800;6.772;2023-07-22T05:30:00;7.47;;;6.78;;
11016;SDS011;54687;50.800;6.772;2023-07-22T05:32:27;7.28;;;6.55;;
11016;SDS011;54687;50.800;6.772;2023-07-22T05:34:54;7.60;;;6.82;;
11016;SDS011;54687;50.800;6.772;2023-07-22T05:37:21;7.10;;;6.40;;
11016;SDS011;54687;50.800;6.772;2023-07-22T05:39:48;7.28;;;6.22;;
11016;SDS011;54687;50.800;6.772;2023-07-22T05:42:16;7.35;;;6.75;;
11016;SDS011;54687;50.800;6.772;2023-07-22T05:44:42;7.72;;;7.03;;
11016;SDS011;54687;50.800;6.772;2023-07-22T05:47:11;6.88;;;6.18;;
11016;SDS011;54687;50.800;6.772;2023-07-22T05:49:38;7.65;;;6.93;;
11016;SDS011;54687;50.800;6.772;2023-07-22T05:52:05;7.45;;;6.75;;
11016;SDS011;54687;50.800;6.772;2023-07-22T05:54:32;7.28;;;6.53;;
11016;SDS011;54687;50.800;6.772;2023-07-22T05:56:58;6.90;;;6.30;;
11016;SDS011;54687;50.800;6.772;2023-07-22T05:59:26;8.02;;;7.22;;
11016;SDS011;54687;50.800;6.772;2023-07-22T06:01:53;6.07;;;5.57;;
11016;SDS011;54687;50.800;6.772;2023-07-22T06:04:19;6.00;;;5.40;;
11016;SDS011;54687;50.800;6.772;2023-07-22T06:06:46;5.97;;;5.20;;
11016;SDS011;54687;50.800;6.772;2023-07-22T06:09:12;5.97;;;5.30;;
11016;SDS011;54687;50.800;6.772;2023-07-22T06:11:39;7.60;;;5.80;;
11016;SDS011;54687;50.800;6.772;2023-07-22T06:14:06;6.30;;;5.22;;
11016;SDS011;54687;50.800;6.772;2023-07-22T06:16:34;7.57;;;5.63;;
11016;SDS011;54687;50.800;6.772;2023-07-22T06:19:01;5.43;;;5.03;;
11016;SDS011;54687;50.800;6.772;2023-07-22T06:21:29;5.55;;;5.03;;
11016;SDS011;54687;50.800;6.772;2023-07-22T06:24:04;5.90;;;5.30;;
11016;SDS011;54687;50.800;6.772;2023-07-22T06:26:31;6.20;;;5.20;;
11016;SDS011;54687;50.800;6.772;2023-07-22T06:28:57;5.40;;;4.95;;
11016;SDS011;54687;50.800;6.772;2023-07-22T06:31:24;5.82;;;5.40;;
11016;SDS011;54687;50.800;6.772;2023-07-22T06:33:55;7.05;;;5.50;;
11016;SDS011;54687;50.800;6.772;2023-07-22T06:36:22;5.60;;;5.20;;
11016;SDS011;54687;50.800;6.772;2023-07-22T06:38:48;6.43;;;5.82;;
11016;SDS011;54687;50.800;6.772;2023-07-22T06:41:16;7.00;;;6.40;;
11016;SDS011;54687;50.800;6.772;2023-07-22T06:43:44;7.75;;;6.95;;
11016;SDS011;54687;50.800;6.772;2023-07-22T06:46:11;6.55;;;5.95;;
11016;SDS011;54687;50.800;6.772;2023-07-22T06:48:38;6.53;;;5.88;;
11016;SDS011;54687;50.800;6.772;2023-07-22T06:51:04;6.57;;;5.85;;
11016;SDS011;54687;50.800;6.772;2023-07-22T06:53:32;6.15;;;5.57;;
11016;SDS011;54687;50.800;6.772;2023-07-22T06:55:59;6.95;;;6.25;;
11016;SDS011;54687;50.800;6.772;2023-07-22T06:58:28;5.88;;;5.38;;
11016;SDS011;54687;50.800;6.772;2023-07-22T07:00:54;4.85;;;4.35;;
11016;SDS011;54687;50.800;6.772;2023-07-22T07:03:21;5.97;;;5.25;;
11016;SDS011;54687;50.800;6.772;2023-07-22T07:05:51;5.25;;;4.57;;
11016;SDS011;54687;50.800;6.772;2023-07-22T07:08:18;6.47;;;4.40;;
11016;SDS011;54687;50.800;6.772;2023-07-22T07:10:45;5.72;;;4.90;;
11016;SDS011;54687;50.800;6.772;2023-07-22T07:13:11;6.65;;;4.50;;
11016;SDS011;54687;50.800;6.772;2023-07-22T07:15:39;4.82;;;4.32;;
11016;SDS011;54687;50.800;6.772;2023-07-22T07:18:06;8.32;;;5.30;;
11016;SDS011;54687;50.800;6.772;2023-07-22T07:20:33;6.35;;;5.55;;
11016;SDS011;54687;50.800;6.772;2023-07-22T07:22:59;5.63;;;5.10;;
11016;SDS011;54687;50.800;6.772;2023-07-22T07:25:26;5.70;;;5.20;;
11016;SDS011;54687;50.800;6.772;2023-07-22T07:27:52;5.75;;;5.35;;
11016;SDS011;54687;50.800;6.772;2023-07-22T07:30:19;8.00;;;6.20;;
11016;SDS011;54687;50.800;6.772;2023-07-22T07:32:47;6.10;;;5.60;;
11016;SDS011;54687;50.800;6.772;2023-07-22T07:35:14;6.57;;;5.35;;
11016;SDS011;54687;50.800;6.772;2023-07-22T07:37:41;6.53;;;5.93;;
11016;SDS011;54687;50.800;6.772;2023-07-22T07:40:08;6.35;;;5.72;;
11016;SDS011;54687;50.800;6.772;2023-07-22T07:42:35;5.97;;;5.38;;
11016;SDS011;54687;50.800;6.772;2023-07-22T07:45:01;6.10;;;5.60;;
11016;SDS011;54687;50.800;6.772;2023-07-22T07:47:28;6.40;;;5.63;;
11016;SDS011;54687;50.800;6.772;2023-07-22T07:49:56;5.50;;;5.00;;
11016;SDS011;54687;50.800;6.772;2023-07-22T07:52:22;5.70;;;5.20;;
11016;SDS011;54687;50.800;6.772;2023-07-22T07:54:49;5.35;;;4.95;;
11016;SDS011;54687;50.800;6.772;2023-07-22T07:57:16;5.60;;;5.15;;
11016;SDS011;54687;50.800;6.772;2023-07-22T07:59:42;5.50;;;5.00;;
11016;SDS011;54687;50.800;6.772;2023-07-22T08:02:09;6.75;;;6.15;;
11016;SDS011;54687;50.800;6.772;2023-07-22T08:04:35;5.53;;;5.13;;
11016;SDS011;54687;50.800;6.772;2023-07-22T08:07:05;5.80;;;4.78;;
11016;SDS011;54687;50.800;6.772;2023-07-22T08:09:36;9.98;;;5.65;;
11016;SDS011;54687;50.800;6.772;2023-07-22T08:12:06;5.60;;;4.78;;
11016;SDS011;54687;50.800;6.772;2023-07-22T08:14:35;5.75;;;5.28;;
11016;SDS011;54687;50.800;6.772;2023-07-22T08:17:03;5.45;;;4.95;;
11016;SDS011;54687;50.800;6.772;2023-07-22T08:19:31;5.57;;;5.13;;
11016;SDS011;54687;50.800;6.772;2023-07-22T08:22:01;5.65;;;5.10;;
11016;SDS011;54687;50.800;6.772;2023-07-22T08:24:33;4.85;;;4.45;;
11016;SDS011;54687;50.800;6.772;2023-07-22T08:27:02;5.70;;;5.10;;
11016;SDS011;54687;50.800;6.772;2023-07-22T08:29:30;5.22;;;4.72;;
11016;SDS011;54687;50.800;6.772;2023-07-22T08:31:57;9.75;;;4.78;;
11016;SDS011;54687;50.800;6.772;2023-07-22T08:34:26;5.55;;;5.03;;
11016;SDS011;54687;50.800;6.772;2023-07-22T08:36:52;5.28;;;4.88;;
11016;SDS011;54687;50.800;6.772;2023-07-22T08:39:20;6.55;;;4.65;;
11016;SDS011;54687;50.800;6.772;2023-07-22T08:41:51;4.90;;;4.50;;
11016;SDS011;54687;50.800;6.772;2023-07-22T08:44:21;5.50;;;4.90;;
11016;SDS011;54687;50.800;6.772;2023-07-22T08:46:50;5.35;;;4.85;;
11016;SDS011;54687;50.800;6.772;2023-07-22T08:49:23;4.65;;;4.28;;
11016;SDS011;54687;50.800;6.772;2023-07-22T08:51:50;5.32;;;4.82;;
11016;SDS011;54687;50.800;6.772;2023-07-22T08:54:16;5.20;;;4.80;;
11016;SDS011;54687;50.800;6.772;2023-07-22T08:56:43;4.78;;;4.38;;
11016;SDS011;54687;50.800;6.772;2023-07-22T08:59:12;5.03;;;4.63;;
11016;SDS011;54687;50.800;6.772;2023-07-22T09:01:40;4.75;;;4.45;;
11016;SDS011;54687;50.800;6.772;2023-07-22T09:04:07;5.10;;;4.60;;
11016;SDS011;54687;50.800;6.772;2023-07-22T09:06:34;4.82;;;4.43;;
11016;SDS011;54687;50.800;6.772;2023-07-22T09:09:02;4.43;;;3.40;;
11016;SDS011;54687;50.800;6.772;2023-07-22T09:11:33;4.20;;;3.53;;
11016;SDS011;54687;50.800;6.772;2023-07-22T09:14:01;4.47;;;3.50;;
11016;SDS011;54687;50.800;6.772;2023-07-22T09:16:30;4.18;;;3.78;;
11016;SDS011;54687;50.800;6.772;2023-07-22T09:18:57;3.60;;;3.30;;
11016;SDS011;54687;50.800;6.772;2023-07-22T09:21:24;3.83;;;3.53;;
11016;SDS011;54687;50.800;6.772;2023-07-22T09:23:53;4.22;;;3.83;;
11016;SDS011;54687;50.800;6.772;2023-07-22T09:26:19;4.45;;;4.05;;
11016;SDS011;54687;50.800;6.772;2023-07-22T09:28:47;3.70;;;3.40;;
11016;SDS011;54687;50.800;6.772;2023-07-22T09:31:15;4.30;;;3.92;;
11016;SDS011;54687;50.800;6.772;2023-07-22T09:33:43;4.13;;;3.80;;
11016;SDS011;54687;50.800;6.772;2023-07-22T09:36:10;4.53;;;3.75;;
11016;SDS011;54687;50.800;6.772;2023-07-22T09:38:37;4.15;;;3.75;;
11016;SDS011;54687;50.800;6.772;2023-07-22T09:41:04;4.00;;;3.70;;
11016;SDS011;54687;50.800;6.772;2023-07-22T09:43:30;3.95;;;3.65;;
11016;SDS011;54687;50.800;6.772;2023-07-22T09:46:05;4.43;;;3.80;;
11016;SDS011;54687;50.800;6.772;2023-07-22T09:48:38;4.13;;;3.72;;
11016;SDS011;54687;50.800;6.772;2023-07-22T09:51:10;4.05;;;3.70;;
11016;SDS011;54687;50.800;6.772;2023-07-22T09:53:38;4.00;;;3.70;;
11016;SDS011;54687;50.800;6.772;2023-07-22T09:56:09;4.38;;;4.07;;
11016;SDS011;54687;50.800;6.772;2023-07-22T09:58:36;3.85;;;3.55;;
11016;SDS011;54687;50.800;6.772;2023-07-22T10:01:04;3.88;;;3.47;;
11016;SDS011;54687;50.800;6.772;2023-07-22T10:03:32;3.70;;;3.40;;
11016;SDS011;54687;50.800;6.772;2023-07-22T10:06:02;3.78;;;3.47;;
11016;SDS011;54687;50.800;6.772;2023-07-22T10:08:33;3.90;;;3.60;;
11016;SDS011;54687;50.800;6.772;2023-07-22T10:11:01;3.10;;;2.90;;
11016;SDS011;54687;50.800;6.772;2023-07-22T10:13:31;3.30;;;3.10;;
11016;SDS011;54687;50.800;6.772;2023-07-22T10:15:58;4.30;;;3.30;;
11016;SDS011;54687;50.800;6.772;2023-07-22T10:18:26;3.63;;;3.33;;
11016;SDS011;54687;50.800;6.772;2023-07-22T10:20:55;3.50;;;3.30;;
11016;SDS011;54687;50.800;6.772;2023-07-22T10:23:23;3.22;;;3.03;;
11016;SDS011;54687;50.800;6.772;2023-07-22T10:25:53;3.95;;;3.55;;
11016;SDS011;54687;50.800;6.772;2023-07-22T10:28:21;3.53;;;3.22;;
11016;SDS011;54687;50.800;6.772;2023-07-22T10:30:49;4.43;;;3.50;;
11016;SDS011;54687;50.800;6.772;2023-07-22T10:33:16;3.65;;;3.35;;
11016;SDS011;54687;50.800;6.772;2023-07-22T10:35:43;4.50;;;3.28;;
11016;SDS011;54687;50.800;6.772;2023-07-22T10:38:27;3.30;;;3.10;;
11016;SDS011;54687;50.800;6.772;2023-07-22T10:40:56;3.10;;;2.90;;
11016;SDS011;54687;50.800;6.772;2023-07-22T10:43:24;2.83;;;2.63;;
11016;SDS011;54687;50.800;6.772;2023-07-22T10:45:52;3.58;;;3.28;;
11016;SDS011;54687;50.800;6.772;2023-07-22T10:48:21;3.20;;;2.90;;
11016;SDS011;54687;50.800;6.772;2023-07-22T10:50:50;3.83;;;2.78;;
11016;SDS011;54687;50.800;6.772;2023-07-22T10:53:27;3.08;;;2.88;;
11016;SDS011;54687;50.800;6.772;2023-07-22T10:56:12;3.80;;;2.60;;
11016;SDS011;54687;50.800;6.772;2023-07-22T10:59:00;3.30;;;3.00;;
11016;SDS011;54687;50.800;6.772;2023-07-22T11:01:32;2.92;;;2.72;;
11016;SDS011;54687;50.800;6.772;2023-07-22T11:04:10;2.92;;;2.72;;
11016;SDS011;54687;50.800;6.772;2023-07-22T11:06:38;3.15;;;2.95;;
11016;SDS011;54687;50.800;6.772;2023-07-22T11:09:33;3.25;;;3.05;;
11016;SDS011;54687;50.800;6.772;2023-07-22T11:12:03;3.17;;;2.88;;
11016;SDS011;54687;50.800;6.772;2023-07-22T11:14:31;3.00;;;2.80;;
11016;SDS011;54687;50.800;6.772;2023-07-22T11:16:59;3.13;;;2.92;;
11016;SDS011;54687;50.800;6.772;2023-07-22T11:19:28;3.88;;;2.97;;
11016;SDS011;54687;50.800;6.772;2023-07-22T11:21:55;4.07;;;3.22;;
11016;SDS011;54687;50.800;6.772;2023-07-22T11:24:23;3.53;;;3.05;;
11016;SDS011;54687;50.800;6.772;2023-07-22T11:26:50;4.20;;;3.30;;
11016;SDS011;54687;50.800;6.772;2023-07-22T11:29:19;3.53;;;3.22;;
11016;SDS011;54687;50.800;6.772;2023-07-22T11:31:46;3.35;;;2.90;;
11016;SDS011;54687;50.800;6.772;2023-07-22T11:34:14;3.55;;;2.75;;
11016;SDS011;54687;50.800;6.772;2023-07-22T11:36:42;3.58;;;2.80;;
11016;SDS011;54687;50.800;6.772;2023-07-22T11:39:10;3.00;;;2.80;;
11016;SDS011;54687;50.800;6.772;2023-07-22T11:41:38;4.50;;;2.72;;
11016;SDS011;54687;50.800;6.772;2023-07-22T11:44:06;4.38;;;2.83;;
11016;SDS011;54687;50.800;6.772;2023-07-22T11:46:44;2.72;;;2.50;;
11016;SDS011;54687;50.800;6.772;2023-07-22T11:49:13;2.40;;;2.20;;
11016;SDS011;54687;50.800;6.772;2023-07-22T11:51:48;3.05;;;2.85;;
11016;SDS011;54687;50.800;6.772;2023-07-22T11:54:15;3.00;;;2.80;;
11016;SDS011;54687;50.800;6.772;2023-07-22T11:56:42;3.63;;;2.67;;
11016;SDS011;54687;50.800;6.772;2023-07-22T11:59:09;2.83;;;2.53;;
11016;SDS011;54687;50.800;6.772;2023-07-22T12:01:37;2.97;;;2.78;;
11016;SDS011;54687;50.800;6.772;2023-07-22T12:04:08;3.20;;;2.58;;
11016;SDS011;54687;50.800;6.772;2023-07-22T12:06:36;2.88;;;2.67;;
11016;SDS011;54687;50.800;6.772;2023-07-22T12:09:02;2.50;;;2.30;;
11016;SDS011;54687;50.800;6.772;2023-07-22T12:11:32;3.22;;;2.80;;
11016;SDS011;54687;50.800;6.772;2023-07-22T12:14:08;2.88;;;2.67;;
11016;SDS011;54687;50.800;6.772;2023-07-22T12:16:39;3.05;;;2.85;;
11016;SDS011;54687;50.800;6.772;2023-07-22T12:19:07;3.05;;;2.80;;
11016;SDS011;54687;50.800;6.772;2023-07-22T12:21:35;3.03;;;2.83;;
11016;SDS011;54687;50.800;6.772;2023-07-22T12:24:02;2.63;;;2.42;;
11016;SDS011;54687;50.800;6.772;2023-07-22T12:26:29;5.93;;;3.30;;
11016;SDS011;54687;50.800;6.772;2023-07-22T12:28:56;3.42;;;3.13;;
11016;SDS011;54687;50.800;6.772;2023-07-22T12:31:24;3.10;;;2.90;;
11016;SDS011;54687;50.800;6.772;2023-07-22T12:33:52;3.80;;;2.72;;
11016;SDS011;54687;50.800;6.772;2023-07-22T12:36:19;4.40;;;2.90;;
11016;SDS011;54687;50.800;6.772;2023-07-22T12:38:46;3.17;;;2.97;;
11016;SDS011;54687;50.800;6.772;2023-07-22T12:41:13;3.13;;;2.92;;
11016;SDS011;54687;50.800;6.772;2023-07-22T12:43:40;3.72;;;3.42;;
11016;SDS011;54687;50.800;6.772;2023-07-22T12:46:06;3.78;;;3.40;;
11016;SDS011;54687;50.800;6.772;2023-07-22T12:48:33;3.35;;;2.83;;
11016;SDS011;54687;50.800;6.772;2023-07-22T12:51:01;3.25;;;2.95;;
11016;SDS011;54687;50.800;6.772;2023-07-22T12:53:28;3.20;;;3.00;;
11016;SDS011;54687;50.800;6.772;2023-07-22T12:55:55;3.30;;;2.85;;
11016;SDS011;54687;50.800;6.772;2023-07-22T12:58:21;3.70;;;3.40;;
11016;SDS011;54687;50.800;6.772;2023-07-22T13:00:48;3.20;;;3.00;;
11016;SDS011;54687;50.800;6.772;2023-07-22T13:03:15;3.63;;;3.42;;
11016;SDS011;54687;50.800;6.772;2023-07-22T13:05:41;3.75;;;3.38;;
11016;SDS011;54687;50.800;6.772;2023-07-22T13:08:09;3.17;;;2.97;;
11016;SDS011;54687;50.800;6.772;2023-07-22T13:10:36;3.45;;;3.20;;
11016;SDS011;54687;50.800;6.772;2023-07-22T13:13:04;3.45;;;3.20;;
11016;SDS011;54687;50.800;6.772;2023-07-22T13:15:31;6.32;;;3.80;;
11016;SDS011;54687;50.800;6.772;2023-07-22T13:17:58;3.70;;;3.20;;
11016;SDS011;54687;50.800;6.772;2023-07-22T13:20:24;3.75;;;3.45;;
11016;SDS011;54687;50.800;6.772;2023-07-22T13:22:51;3.58;;;3.20;;
11016;SDS011;54687;50.800;6.772;2023-07-22T13:25:19;4.10;;;2.90;;
11016;SDS011;54687;50.800;6.772;2023-07-22T13:27:46;5.85;;;3.83;;
11016;SDS011;54687;50.800;6.772;2023-07-22T13:30:12;3.65;;;3.30;;
11016;SDS011;54687;50.800;6.772;2023-07-22T13:32:39;4.65;;;3.60;;
11016;SDS011;54687;50.800;6.772;2023-07-22T13:35:06;3.60;;;3.30;;
11016;SDS011;54687;50.800;6.772;2023-07-22T13:37:33;3.88;;;3.47;;
11016;SDS011;54687;50.800;6.772;2023-07-22T13:40:00;4.07;;;3.70;;
11016;SDS011;54687;50.800;6.772;2023-07-22T13:42:30;4.30;;;3.97;;
11016;SDS011;54687;50.800;6.772;2023-07-22T13:44:56;4.15;;;3.63;;
11016;SDS011;54687;50.800;6.772;2023-07-22T13:47:23;3.70;;;3.50;;
11016;SDS011;54687;50.800;6.772;2023-07-22T13:49:49;3.33;;;3.13;;
11016;SDS011;54687;50.800;6.772;2023-07-22T13:52:16;4.38;;;3.45;;
11016;SDS011;54687;50.800;6.772;2023-07-22T13:54:42;3.55;;;3.35;;
11016;SDS011;54687;50.800;6.772;2023-07-22T13:57:10;3.53;;;3.22;;
11016;SDS011;54687;50.800;6.772;2023-07-22T13:59:39;4.05;;;3.75;;
11016;SDS011;54687;50.800;6.772;2023-07-22T14:02:06;4.47;;;4.07;;
11016;SDS011;54687;50.800;6.772;2023-07-22T14:04:32;4.57;;;4.18;;
11016;SDS011;54687;50.800;6.772;2023-07-22T14:06:59;4.03;;;3.67;;
11016;SDS011;54687;50.800;6.772;2023-07-22T14:09:25;3.78;;;3.47;;
11016;SDS011;54687;50.800;6.772;2023-07-22T14:11:52;3.63;;;3.33;;
11016;SDS011;54687;50.800;6.772;2023-07-22T14:14:19;4.10;;;3.80;;
11016;SDS011;54687;50.800;6.772;2023-07-22T14:16:47;4.00;;;3.50;;
11016;SDS011;54687;50.800;6.772;2023-07-22T14:19:13;5.28;;;3.75;;
11016;SDS011;54687;50.800;6.772;2023-07-22T14:21:40;4.60;;;3.60;;
11016;SDS011;54687;50.800;6.772;2023-07-22T14:24:06;4.00;;;3.50;;
11016;SDS011;54687;50.800;6.772;2023-07-22T14:26:33;4.25;;;3.85;;
11016;SDS011;54687;50.800;6.772;2023-07-22T14:28:59;3.70;;;3.40;;
11016;SDS011;54687;50.800;6.772;2023-07-22T14:31:26;4.80;;;3.92;;
11016;SDS011;54687;50.800;6.772;2023-07-22T14:33:54;4.00;;;3.70;;
11016;SDS011;54687;50.800;6.772;2023-07-22T14:36:21;4.28;;;3.88;;
11016;SDS011;54687;50.800;6.772;2023-07-22T14:38:47;4.60;;;3.92;;
11016;SDS011;54687;50.800;6.772;2023-07-22T14:41:14;4.38;;;3.53;;
11016;SDS011;54687;50.800;6.772;2023-07-22T14:43:41;4.20;;;3.80;;
11016;SDS011;54687;50.800;6.772;2023-07-22T14:46:07;5.40;;;3.90;;
11016;SDS011;54687;50.800;6.772;2023-07-22T14:48:34;4.05;;;3.65;;
11016;SDS011;54687;50.800;6.772;2023-07-22T14:51:02;16.95;;;8.20;;